createdAt,value
2023-05-13T00:02:21.553Z,6.18
2023-05-13T00:05:24.590Z,6.03
2023-05-13T00:08:27.569Z,6.17
2023-05-13T00:11:30.570Z,6.25
2023-05-13T00:14:33.554Z,6.88
2023-05-13T00:17:36.593Z,6.80
2023-05-13T00:20:39.554Z,7.53
2023-05-13T00:23:42.496Z,6.97
2023-05-13T00:26:45.554Z,6.82
2023-05-13T00:29:48.506Z,7.18
2023-05-13T00:32:51.896Z,6.13
2023-05-13T00:35:54.850Z,6.75
2023-05-13T00:38:58.298Z,6.43
2023-05-13T00:42:01.241Z,6.40
2023-05-13T00:45:04.581Z,6.55
2023-05-13T00:48:08.045Z,6.70
2023-05-13T00:51:11.040Z,6.97
2023-05-13T00:54:14.017Z,6.37
2023-05-13T00:57:16.972Z,5.97
2023-05-13T01:00:20.582Z,6.68
2023-05-13T01:04:05.081Z,5.68
2023-05-13T01:07:16.387Z,6.00
2023-05-13T01:10:39.438Z,5.70
2023-05-13T01:13:43.534Z,6.18
2023-05-13T01:16:53.344Z,6.05
2023-05-13T01:19:57.787Z,5.97
2023-05-13T01:23:00.875Z,5.82
2023-05-13T01:26:03.889Z,5.80
2023-05-13T01:29:08.880Z,5.72
2023-05-13T01:32:11.849Z,5.90
2023-05-13T01:35:14.837Z,5.18
2023-05-13T01:38:21.326Z,5.25
2023-05-13T01:41:27.877Z,8.30
2023-05-13T01:44:31.469Z,5.78
2023-05-13T01:47:35.797Z,5.57
2023-05-13T01:50:38.946Z,5.63
2023-05-13T01:53:42.596Z,5.60
2023-05-13T01:56:45.955Z,5.30
2023-05-13T01:59:49.172Z,5.63
2023-05-13T02:02:52.174Z,6.18
2023-05-13T02:05:55.519Z,5.70
2023-05-13T02:08:58.621Z,5.05
2023-05-13T02:12:01.601Z,5.40
2023-05-13T02:15:06.473Z,5.40
2023-05-13T02:18:09.503Z,5.20
2023-05-13T02:21:12.622Z,5.32
2023-05-13T02:24:16.355Z,5.30
2023-05-13T02:27:20.828Z,6.03
2023-05-13T02:30:27.036Z,5.32
2023-05-13T02:33:30.078Z,5.78
2023-05-13T02:36:33.316Z,5.28
2023-05-13T02:39:36.905Z,5.53
2023-05-13T02:42:40.631Z,5.33
2023-05-13T02:45:44.524Z,5.65
2023-05-13T02:48:47.811Z,5.50
2023-05-13T02:51:52.008Z,5.63
2023-05-13T02:55:00.398Z,5.28
2023-05-13T02:58:04.545Z,4.80
2023-05-13T03:01:07.966Z,5.55
2023-05-13T03:04:11.208Z,5.57
2023-05-13T03:07:14.120Z,5.10
2023-05-13T03:10:17.111Z,5.97
2023-05-13T03:13:21.523Z,5.27
2023-05-13T03:16:24.480Z,5.22
2023-05-13T03:19:28.157Z,5.43
2023-05-13T03:22:31.616Z,5.40
2023-05-13T03:25:34.747Z,5.57
2023-05-13T03:28:38.806Z,5.47
2023-05-13T03:31:42.001Z,6.05
2023-05-13T03:34:45.100Z,6.22
2023-05-13T03:37:48.195Z,6.07
2023-05-13T03:40:52.645Z,6.00
2023-05-13T03:43:56.242Z,6.30
2023-05-13T03:46:59.294Z,7.43
2023-05-13T03:50:02.414Z,6.80
2023-05-13T03:53:12.334Z,5.90
2023-05-13T03:56:16.865Z,6.53
2023-05-13T03:59:21.779Z,6.07
2023-05-13T04:02:24.913Z,6.15
2023-05-13T04:05:27.932Z,6.07
2023-05-13T04:08:30.906Z,5.43
2023-05-13T04:11:33.855Z,5.72
2023-05-13T04:14:36.876Z,5.70
2023-05-13T04:17:39.861Z,6.20
2023-05-13T04:20:42.877Z,7.00
2023-05-13T04:23:45.805Z,7.15
2023-05-13T04:26:48.749Z,5.97
2023-05-13T04:29:52.244Z,6.20
2023-05-13T04:32:56.020Z,5.72
2023-05-13T04:35:59.190Z,4.97
2023-05-13T04:39:02.316Z,5.72
2023-05-13T04:42:06.158Z,5.85
2023-05-13T04:45:09.592Z,4.70
2023-05-13T04:48:13.266Z,5.40
2023-05-13T04:51:17.532Z,5.28
2023-05-13T04:54:21.179Z,5.00
2023-05-13T04:57:24.548Z,5.38
2023-05-13T05:00:27.595Z,5.50
2023-05-13T05:03:31.137Z,5.65
2023-05-13T05:06:35.487Z,5.13
2023-05-13T05:09:38.750Z,5.20
2023-05-13T05:12:42.451Z,5.57
2023-05-13T05:15:45.513Z,5.67
2023-05-13T05:18:50.237Z,5.57
2023-05-13T05:21:53.794Z,5.40
2023-05-13T05:24:56.840Z,5.78
2023-05-13T05:28:01.721Z,5.50
2023-05-13T05:31:05.364Z,6.20
2023-05-13T05:34:09.954Z,5.95
2023-05-13T05:37:13.279Z,6.10
2023-05-13T05:40:17.932Z,6.47
2023-05-13T05:43:21.110Z,6.00
2023-05-13T05:46:24.184Z,7.00
2023-05-13T05:49:27.793Z,7.57
2023-05-13T05:52:30.919Z,7.13
2023-05-13T05:55:34.600Z,6.75
2023-05-13T05:58:37.588Z,6.43
2023-05-13T06:01:40.782Z,6.00
2023-05-13T06:04:43.920Z,5.97
2023-05-13T06:07:47.173Z,6.13
2023-05-13T06:10:50.226Z,6.20
2023-05-13T06:13:54.309Z,5.35
2023-05-13T06:16:57.781Z,5.80
2023-05-13T06:20:00.832Z,6.13
2023-05-13T06:23:03.916Z,6.30
2023-05-13T06:26:06.991Z,6.03
2023-05-13T06:29:11.506Z,6.18
2023-05-13T06:32:14.517Z,5.77
2023-05-13T06:35:17.564Z,5.47
2023-05-13T06:38:20.959Z,5.95
2023-05-13T06:41:26.022Z,5.75
2023-05-13T06:44:33.067Z,5.63
2023-05-13T06:47:40.888Z,5.60
2023-05-13T06:50:46.461Z,5.72
2023-05-13T06:53:49.433Z,5.40
2023-05-13T06:56:52.379Z,5.50
2023-05-13T06:59:55.327Z,5.10
2023-05-13T07:02:58.326Z,5.20
2023-05-13T07:06:01.277Z,5.38
2023-05-13T07:09:08.160Z,5.03
2023-05-13T07:12:11.285Z,5.35
2023-05-13T07:15:14.265Z,5.47
2023-05-13T07:18:17.291Z,5.50
2023-05-13T07:21:20.637Z,6.15
2023-05-13T07:24:23.896Z,5.38
2023-05-13T07:27:26.817Z,4.80
2023-05-13T07:30:29.945Z,5.70
2023-05-13T07:33:32.991Z,5.30
2023-05-13T07:36:35.962Z,5.05
2023-05-13T07:39:38.887Z,4.75
2023-05-13T07:42:41.886Z,4.93
2023-05-13T07:45:44.834Z,5.22
2023-05-13T07:48:48.365Z,5.43
2023-05-13T07:51:51.810Z,4.90
2023-05-13T07:54:55.187Z,5.32
2023-05-13T07:57:58.260Z,5.10
2023-05-13T08:01:01.269Z,5.63
2023-05-13T08:04:04.385Z,4.83
2023-05-13T08:07:07.499Z,5.18
2023-05-13T08:10:10.608Z,5.30
2023-05-13T08:13:13.600Z,4.80
2023-05-13T08:16:16.641Z,5.75
2023-05-13T08:19:20.493Z,4.83
2023-05-13T08:22:23.519Z,5.28
2023-05-13T08:25:26.535Z,5.70
2023-05-13T08:28:29.612Z,4.80
2023-05-13T08:31:32.624Z,5.18
2023-05-13T08:34:35.743Z,4.90
2023-05-13T08:37:38.669Z,4.80
2023-05-13T08:40:42.818Z,4.88
2023-05-13T08:43:46.110Z,5.10
2023-05-13T08:46:53.819Z,5.57
2023-05-13T08:49:57.097Z,4.67
2023-05-13T08:53:00.487Z,5.03
2023-05-13T08:56:03.495Z,6.45
2023-05-13T08:59:06.424Z,5.50
2023-05-13T09:02:09.776Z,5.50
2023-05-13T09:05:12.746Z,5.50
2023-05-13T09:08:16.229Z,5.28
2023-05-13T09:11:19.207Z,6.03
2023-05-13T09:14:22.206Z,6.07
2023-05-13T09:17:25.155Z,6.00
2023-05-13T09:20:28.261Z,5.83
2023-05-13T09:23:31.182Z,5.80
2023-05-13T09:26:34.326Z,6.80
2023-05-13T09:29:37.242Z,5.80
2023-05-13T09:32:40.657Z,6.60
2023-05-13T09:35:44.887Z,5.47
2023-05-13T09:38:47.803Z,6.88
2023-05-13T09:41:50.713Z,6.03
2023-05-13T09:44:53.672Z,5.50
2023-05-13T09:47:57.449Z,5.90
2023-05-13T09:51:00.772Z,5.23
2023-05-13T09:54:05.094Z,5.10
2023-05-13T09:57:08.071Z,5.90
2023-05-13T10:00:18.144Z,7.57
2023-05-13T10:03:29.125Z,6.25
2023-05-13T10:06:32.113Z,5.60
2023-05-13T10:09:38.103Z,5.20
2023-05-13T10:12:41.070Z,5.20
2023-05-13T10:15:50.600Z,5.25
2023-05-13T10:18:53.630Z,5.70
2023-05-13T10:21:57.687Z,5.53
2023-05-13T10:25:01.320Z,5.45
2023-05-13T10:28:04.773Z,6.45
2023-05-13T10:31:07.757Z,6.18
2023-05-13T10:34:10.647Z,5.63
2023-05-13T10:37:51.004Z,6.10
2023-05-13T10:41:10.314Z,7.20
2023-05-13T10:44:13.417Z,7.28
2023-05-13T10:47:16.773Z,5.38
2023-05-13T10:50:26.277Z,6.75
2023-05-13T10:53:34.631Z,5.07
2023-05-13T10:56:37.708Z,5.65
2023-05-13T11:00:16.576Z,5.90
2023-05-13T11:03:19.900Z,5.47
2023-05-13T11:06:43.948Z,5.63
2023-05-13T11:09:51.270Z,7.33
2023-05-13T11:13:15.761Z,5.97
2023-05-13T11:16:18.852Z,6.28
2023-05-13T11:19:27.591Z,6.40
2023-05-13T11:22:30.785Z,5.70
2023-05-13T11:25:33.748Z,6.07
2023-05-13T11:29:05.262Z,6.07
2023-05-13T11:32:08.181Z,7.13
2023-05-13T11:35:11.143Z,6.57
2023-05-13T11:38:21.696Z,6.20
2023-05-13T11:41:24.619Z,7.27
2023-05-13T11:44:27.713Z,6.43
2023-05-13T11:47:30.879Z,6.38
2023-05-13T11:50:34.067Z,6.88
2023-05-13T11:53:36.978Z,6.80
2023-05-13T11:56:39.919Z,7.07
2023-05-13T11:59:49.372Z,7.78
2023-05-13T12:02:52.652Z,6.28
2023-05-13T12:06:05.738Z,6.20
2023-05-13T12:09:09.697Z,6.40
2023-05-13T12:12:12.814Z,6.60
2023-05-13T12:15:19.540Z,6.10
2023-05-13T12:18:22.471Z,5.95
2023-05-13T12:21:25.401Z,6.07
2023-05-13T12:24:28.703Z,8.80
2023-05-13T12:27:31.699Z,6.60
2023-05-13T12:30:38.588Z,5.78
2023-05-13T12:33:46.901Z,6.03
2023-05-13T12:36:49.878Z,5.50
2023-05-13T12:39:54.547Z,5.75
2023-05-13T12:43:01.077Z,5.30
2023-05-13T12:46:04.965Z,5.90
2023-05-13T12:49:09.125Z,5.45
2023-05-13T12:52:12.045Z,6.13
2023-05-13T12:55:15.071Z,5.55
2023-05-13T12:58:18.020Z,6.23
2023-05-13T13:01:21.239Z,5.80
2023-05-13T13:04:24.254Z,5.35
2023-05-13T13:07:27.318Z,6.22
2023-05-13T13:10:30.253Z,6.30
2023-05-13T13:13:33.507Z,6.50
2023-05-13T13:16:36.473Z,6.45
2023-05-13T13:19:39.492Z,5.90
2023-05-13T13:22:42.406Z,5.53
2023-05-13T13:25:45.582Z,5.45
2023-05-13T13:28:48.563Z,5.60
2023-05-13T13:31:52.359Z,5.25
2023-05-13T13:34:55.915Z,5.13
2023-05-13T13:37:58.889Z,5.10
2023-05-13T13:41:01.853Z,5.70
2023-05-13T13:44:05.000Z,5.00
2023-05-13T13:47:09.027Z,4.95
2023-05-13T13:50:12.041Z,5.70
2023-05-13T13:53:15.038Z,5.07
2023-05-13T13:56:18.060Z,5.70
2023-05-13T13:59:21.074Z,5.10
2023-05-13T14:02:24.344Z,5.47
2023-05-13T14:05:27.448Z,5.13
2023-05-13T14:08:30.361Z,5.00
2023-05-13T14:11:33.755Z,5.20
2023-05-13T14:14:36.682Z,5.53
2023-05-13T14:17:39.653Z,4.97
2023-05-13T14:20:42.882Z,4.90
2023-05-13T14:23:48.390Z,4.68
2023-05-13T14:26:51.407Z,4.70
2023-05-13T14:29:54.411Z,5.00
2023-05-13T14:32:57.484Z,4.68
2023-05-13T14:36:00.865Z,5.72
2023-05-13T14:39:03.909Z,4.97
2023-05-13T14:42:07.372Z,4.72
2023-05-13T14:45:14.504Z,6.10
2023-05-13T14:48:19.516Z,4.88
2023-05-13T14:51:22.534Z,4.75
2023-05-13T14:54:25.746Z,5.00
2023-05-13T14:57:28.798Z,4.90
2023-05-13T15:00:32.965Z,4.93
2023-05-13T15:03:36.079Z,5.53
2023-05-13T15:06:39.109Z,5.18
2023-05-13T15:09:42.080Z,5.10
2023-05-13T15:12:45.018Z,4.97
2023-05-13T15:15:48.194Z,4.90
2023-05-13T15:18:51.217Z,4.90
2023-05-13T15:21:54.259Z,5.35
2023-05-13T15:24:57.224Z,5.40
2023-05-13T15:28:00.269Z,5.05
2023-05-13T15:31:03.299Z,5.40
2023-05-13T15:34:06.289Z,5.05
2023-05-13T15:37:09.286Z,5.88
2023-05-13T15:40:12.603Z,5.53
2023-05-13T15:43:15.546Z,4.93
2023-05-13T15:46:18.570Z,5.23
2023-05-13T15:49:22.179Z,5.10
2023-05-13T15:52:25.197Z,4.10
2023-05-13T15:55:28.155Z,5.18
2023-05-13T15:58:31.246Z,4.32
2023-05-13T16:01:34.285Z,5.17
2023-05-13T16:04:37.460Z,5.28
2023-05-13T16:07:40.664Z,4.93
2023-05-13T16:10:43.633Z,4.90
2023-05-13T16:13:46.664Z,5.03
2023-05-13T16:16:49.742Z,5.10
2023-05-13T16:19:52.990Z,5.10
2023-05-13T16:22:56.057Z,4.38
2023-05-13T16:25:59.647Z,4.47
2023-05-13T16:29:02.733Z,5.32
2023-05-13T16:32:06.567Z,4.47
2023-05-13T16:35:11.889Z,4.70
2023-05-13T16:38:14.868Z,5.07
2023-05-13T16:41:17.816Z,4.68
2023-05-13T16:44:20.742Z,5.25
2023-05-13T16:47:23.815Z,5.60
2023-05-13T16:50:26.925Z,4.93
2023-05-13T16:53:29.932Z,4.30
2023-05-13T16:56:32.897Z,4.82
2023-05-13T16:59:35.887Z,5.20
2023-05-13T17:02:39.001Z,4.90
2023-05-13T17:05:42.120Z,4.95
2023-05-13T17:08:45.123Z,5.55
2023-05-13T17:11:48.079Z,4.78
2023-05-13T17:14:51.871Z,5.07
2023-05-13T17:17:55.031Z,5.20
2023-05-13T17:21:00.029Z,5.22
2023-05-13T17:24:03.123Z,5.47
2023-05-13T17:27:06.698Z,5.38
2023-05-13T17:30:10.090Z,4.95
2023-05-13T17:33:13.101Z,5.27
2023-05-13T17:36:16.214Z,5.05
2023-05-13T17:39:19.169Z,5.63
2023-05-13T17:42:22.158Z,5.38
2023-05-13T17:45:25.230Z,5.63
2023-05-13T17:48:28.225Z,5.43
2023-05-13T17:51:31.370Z,4.95
2023-05-13T17:54:34.288Z,4.35
2023-05-13T17:57:37.286Z,5.25
2023-05-13T18:00:40.655Z,4.90
2023-05-13T18:03:43.599Z,5.10
2023-05-13T18:06:46.611Z,5.28
2023-05-13T18:09:50.077Z,5.60
2023-05-13T18:12:53.176Z,5.28
2023-05-13T18:15:56.294Z,6.10
2023-05-13T18:18:59.288Z,6.30
2023-05-13T18:22:02.313Z,6.85
2023-05-13T18:25:06.347Z,6.90
2023-05-13T18:28:09.309Z,6.57
2023-05-13T18:31:12.293Z,5.53
2023-05-13T18:34:15.675Z,6.17
2023-05-13T18:37:18.694Z,5.88
2023-05-13T18:40:21.879Z,6.22
2023-05-13T18:43:24.977Z,5.70
2023-05-13T18:46:27.999Z,5.72
2023-05-13T18:49:32.320Z,5.97
2023-05-13T18:52:35.302Z,5.97
2023-05-13T18:55:38.261Z,6.28
2023-05-13T18:58:41.678Z,6.00
2023-05-13T19:01:44.796Z,5.68
2023-05-13T19:04:47.879Z,6.43
2023-05-13T19:07:50.876Z,5.70
2023-05-13T19:10:53.873Z,6.70
2023-05-13T19:13:58.209Z,5.75
2023-05-13T19:17:01.253Z,5.78
2023-05-13T19:20:04.647Z,6.00
2023-05-13T19:23:07.648Z,6.30
2023-05-13T19:26:10.603Z,5.90
2023-05-13T19:29:14.041Z,6.20
2023-05-13T19:32:17.469Z,6.35
2023-05-13T19:35:20.490Z,6.30
2023-05-13T19:38:23.489Z,5.63
2023-05-13T19:41:26.666Z,6.20
2023-05-13T19:44:31.912Z,6.05
2023-05-13T19:47:35.193Z,6.85
2023-05-13T19:50:38.149Z,6.17
2023-05-13T19:53:41.287Z,6.45
2023-05-13T19:56:44.240Z,6.25
2023-05-13T19:59:47.412Z,5.90
2023-05-13T20:02:50.451Z,5.90
2023-05-13T20:05:53.942Z,6.40
2023-05-13T20:08:58.440Z,6.45
2023-05-13T20:12:02.177Z,6.65
2023-05-13T20:15:05.582Z,6.00
2023-05-13T20:18:09.034Z,6.22
2023-05-13T20:21:12.040Z,7.00
2023-05-13T20:24:15.122Z,6.25
2023-05-13T20:27:18.233Z,7.20
2023-05-13T20:30:21.931Z,6.93
2023-05-13T20:33:25.654Z,6.43
2023-05-13T20:36:28.599Z,6.33
2023-05-13T20:39:31.570Z,7.15
2023-05-13T20:42:34.576Z,6.72
2023-05-13T20:45:39.656Z,6.32
2023-05-13T20:48:42.894Z,6.80
2023-05-13T20:51:47.267Z,7.00
2023-05-13T20:54:50.284Z,7.15
2023-05-13T20:57:53.240Z,6.88
2023-05-13T21:00:56.266Z,6.28
2023-05-13T21:03:59.485Z,6.93
2023-05-13T21:07:03.875Z,7.07
2023-05-13T21:10:07.750Z,7.10
2023-05-13T21:13:10.895Z,7.15
2023-05-13T21:16:13.899Z,6.80
2023-05-13T21:19:21.384Z,7.22
2023-05-13T21:22:24.306Z,6.53
2023-05-13T21:25:28.398Z,6.40
2023-05-13T21:28:31.371Z,6.90
2023-05-13T21:31:34.486Z,6.47
2023-05-13T21:34:37.452Z,5.95
2023-05-13T21:37:40.902Z,6.63
2023-05-13T21:40:44.051Z,6.22
2023-05-13T21:43:47.255Z,6.40
2023-05-13T21:46:50.225Z,5.82
2023-05-13T21:49:53.140Z,6.30
2023-05-13T21:52:56.100Z,6.13
2023-05-13T21:56:00.283Z,6.38
2023-05-13T21:59:03.292Z,6.40
2023-05-13T22:02:06.551Z,6.25
2023-05-13T22:05:09.975Z,6.50
2023-05-13T22:08:13.010Z,6.17
2023-05-13T22:11:16.039Z,6.22
2023-05-13T22:14:19.077Z,5.60
2023-05-13T22:17:22.520Z,6.70
2023-05-13T22:20:26.064Z,6.85
2023-05-13T22:23:29.104Z,6.50
2023-05-13T22:26:32.443Z,6.60
2023-05-13T22:29:35.425Z,6.85
2023-05-13T22:32:38.554Z,7.30
2023-05-13T22:35:41.554Z,7.00
2023-05-13T22:38:44.517Z,7.47
2023-05-13T22:41:47.595Z,6.32
2023-05-13T22:44:50.582Z,7.03
2023-05-13T22:47:53.768Z,7.75
2023-05-13T22:50:59.730Z,6.82
2023-05-13T22:54:02.732Z,6.67
2023-05-13T22:57:05.984Z,6.50
2023-05-13T23:00:09.571Z,6.72
2023-05-13T23:03:12.596Z,7.05
2023-05-13T23:06:15.599Z,6.90
2023-05-13T23:09:18.547Z,7.30
2023-05-13T23:12:22.402Z,6.80
2023-05-13T23:15:25.578Z,6.20
2023-05-13T23:18:28.600Z,7.03
2023-05-13T23:21:32.443Z,6.95
2023-05-13T23:24:36.722Z,6.70
2023-05-13T23:27:39.678Z,6.80
2023-05-13T23:30:42.882Z,6.65
2023-05-13T23:33:45.867Z,7.13
2023-05-13T23:36:48.810Z,7.07
2023-05-13T23:39:51.830Z,7.27
2023-05-13T23:42:55.200Z,6.53
2023-05-13T23:45:58.181Z,6.50
2023-05-13T23:49:01.172Z,6.28
2023-05-13T23:52:04.200Z,6.47
2023-05-13T23:55:07.781Z,6.53
2023-05-13T23:58:10.813Z,6.13
